Time;durP1;ratioP1;P1;durP2;ratioP2;P2;SDS_P1;SDS_P2;PMS_P1;PMS_P2;Temp;Humidity;BMP_temperature;BMP_pressure;BME280_temperature;BME280_humidity;BME280_pressure;Samples;Min_cycle;Max_cycle;Signal;HPM_P1;HPM_P2
2024/02/27 00:01:19;;;;;;;11.60;2.05;;;4.60;99.90;;;;;;6216346;28;20429;-84
2024/02/27 00:04:21;;;;;;;8.95;1.73;;;4.60;99.90;;;;;;6212287;28;20053;-84
2024/02/27 00:07:25;;;;;;;12.93;2.00;;;4.70;99.90;;;;;;6269906;28;20045;-83
2024/02/27 00:10:27;;;;;;;9.05;2.22;;;4.80;99.90;;;;;;6246963;28;20053;-83
2024/02/27 00:13:28;;;;;;;13.73;2.20;;;4.80;99.90;;;;;;6259354;28;20049;-81
2024/02/27 00:16:30;;;;;;;9.55;1.88;;;4.90;99.90;;;;;;6217557;28;20049;-84
2024/02/27 00:19:32;;;;;;;7.82;1.80;;;5.00;99.90;;;;;;6271149;28;20056;-84
2024/02/27 00:22:34;;;;;;;13.25;2.25;;;5.00;99.90;;;;;;6245912;28;20049;-84
2024/02/27 00:25:36;;;;;;;13.80;2.10;;;5.00;99.90;;;;;;6241645;28;20046;-83
2024/02/27 00:28:37;;;;;;;10.13;1.98;;;5.10;99.90;;;;;;6257865;28;20420;-84
2024/02/27 00:31:39;;;;;;;9.50;1.98;;;5.10;99.90;;;;;;6270897;28;20052;-83
2024/02/27 00:34:41;;;;;;;8.80;2.05;;;5.10;99.90;;;;;;6246647;28;20049;-85
2024/02/27 00:37:42;;;;;;;15.35;2.10;;;5.20;99.90;;;;;;6249199;28;20069;-83
2024/02/27 00:40:44;;;;;;;12.32;2.63;;;5.20;99.90;;;;;;6271193;28;20076;-83
2024/02/27 00:43:45;;;;;;;12.85;2.65;;;5.20;99.90;;;;;;6249732;28;20037;-84
2024/02/27 00:46:47;;;;;;;7.43;1.63;;;5.10;99.90;;;;;;6245662;28;20053;-84
2024/02/27 00:49:49;;;;;;;12.13;1.75;;;5.10;99.90;;;;;;6242283;28;20045;-84
2024/02/27 00:52:50;;;;;;;8.65;2.58;;;5.00;99.90;;;;;;6245826;28;20103;-84
2024/02/27 00:55:52;;;;;;;12.45;1.95;;;4.90;99.90;;;;;;6246415;28;20060;-84
2024/02/27 00:58:54;;;;;;;10.98;2.03;;;4.90;99.90;;;;;;6255298;28;20060;-83
2024/02/27 01:01:55;;;;;;;13.90;2.72;;;4.80;99.90;;;;;;6246585;28;20049;-84
2024/02/27 01:04:57;;;;;;;11.15;2.00;;;4.70;99.90;;;;;;6270252;28;20052;-85
2024/02/27 01:08:01;;;;;;;10.90;1.98;;;4.50;99.90;;;;;;6222204;28;20244;-83
2024/02/27 01:11:03;;;;;;;14.88;2.40;;;4.40;99.90;;;;;;6240789;28;20560;-84
2024/02/27 01:14:04;;;;;;;12.32;2.45;;;4.20;99.90;;;;;;6257465;28;20056;-83
2024/02/27 01:17:06;;;;;;;11.43;2.40;;;4.20;99.90;;;;;;6245825;28;20057;-83
2024/02/27 01:20:07;;;;;;;11.13;2.20;;;4.10;99.90;;;;;;6269255;28;20045;-83
2024/02/27 01:23:09;;;;;;;11.50;1.88;;;4.00;99.90;;;;;;6242703;28;20060;-83
2024/02/27 01:26:11;;;;;;;8.30;1.80;;;4.00;99.90;;;;;;6215885;28;20071;-84
2024/02/27 01:29:13;;;;;;;13.85;2.53;;;3.90;99.90;;;;;;6250195;28;20052;-83
2024/02/27 01:32:15;;;;;;;9.18;2.15;;;3.80;99.90;;;;;;6269022;28;20068;-84
2024/02/27 01:35:18;;;;;;;7.50;2.00;;;3.90;99.90;;;;;;6245156;28;20050;-84
2024/02/27 01:38:20;;;;;;;11.32;2.08;;;3.90;99.90;;;;;;6267993;28;20057;-84
2024/02/27 01:41:21;;;;;;;11.57;2.65;;;4.00;99.90;;;;;;6270128;28;20055;-84
2024/02/27 01:44:23;;;;;;;9.82;2.20;;;4.00;99.90;;;;;;6246428;28;20521;-83
2024/02/27 01:47:25;;;;;;;11.98;2.60;;;4.20;99.90;;;;;;6236887;28;20056;-83
2024/02/27 01:50:27;;;;;;;13.85;2.55;;;4.10;99.90;;;;;;6236754;28;20092;-84
2024/02/27 01:53:28;;;;;;;12.02;2.60;;;4.20;99.90;;;;;;6247444;28;20045;-84
2024/02/27 01:56:30;;;;;;;12.65;2.92;;;4.20;99.90;;;;;;6269154;28;20049;-84
2024/02/27 01:59:31;;;;;;;13.57;2.85;;;4.30;99.90;;;;;;6231829;28;20049;-84
2024/02/27 02:02:34;;;;;;;10.02;2.40;;;4.20;99.90;;;;;;6248055;28;20057;-84
2024/02/27 02:05:36;;;;;;;8.93;2.65;;;4.20;99.90;;;;;;6269770;28;20534;-84
2024/02/27 02:08:38;;;;;;;9.02;2.38;;;4.20;99.90;;;;;;6242384;28;20049;-84
2024/02/27 02:11:41;;;;;;;9.85;2.50;;;4.20;99.90;;;;;;6240228;28;20057;-84
2024/02/27 02:14:48;;;;;;;9.95;2.13;;;4.20;99.90;;;;;;6250292;28;20053;-84
2024/02/27 02:17:49;;;;;;;10.25;2.33;;;4.30;99.90;;;;;;6232354;28;20489;-83
2024/02/27 02:20:52;;;;;;;8.18;2.10;;;4.30;99.90;;;;;;6255065;28;20092;-84
2024/02/27 02:23:56;;;;;;;9.40;1.77;;;4.40;99.90;;;;;;6248061;28;20053;-85
2024/02/27 02:26:57;;;;;;;11.15;2.30;;;4.40;99.90;;;;;;6251208;28;20155;-84
2024/02/27 02:29:59;;;;;;;14.90;2.50;;;4.30;99.90;;;;;;6234749;28;20136;-83
2024/02/27 02:33:01;;;;;;;10.85;1.80;;;4.30;99.90;;;;;;6247376;28;20057;-85
2024/02/27 02:36:03;;;;;;;7.88;1.80;;;4.30;99.90;;;;;;6246549;28;20065;-83
2024/02/27 02:39:06;;;;;;;12.70;1.90;;;4.30;99.90;;;;;;6242833;28;20052;-84
2024/02/27 02:42:07;;;;;;;8.45;1.95;;;4.40;99.90;;;;;;6255449;28;20054;-84
2024/02/27 02:45:09;;;;;;;7.55;2.03;;;4.30;99.90;;;;;;6262876;28;20061;-85
2024/02/27 02:48:11;;;;;;;6.88;2.33;;;4.20;99.90;;;;;;6216596;28;20049;-84
2024/02/27 02:51:13;;;;;;;8.20;1.60;;;4.20;99.90;;;;;;6246980;28;20108;-84
2024/02/27 02:54:14;;;;;;;7.72;1.90;;;4.20;99.90;;;;;;6265581;28;20081;-84
2024/02/27 02:57:18;;;;;;;9.90;2.35;;;4.20;99.90;;;;;;6243918;28;20053;-84
2024/02/27 03:00:20;;;;;;;8.40;2.00;;;4.20;99.90;;;;;;6245233;28;20051;-85
2024/02/27 03:03:22;;;;;;;7.63;1.73;;;4.20;99.90;;;;;;6243880;28;20118;-85
2024/02/27 03:06:23;;;;;;;9.48;1.73;;;4.20;99.90;;;;;;6251081;28;20052;-85
2024/02/27 03:09:25;;;;;;;8.70;2.00;;;4.00;99.90;;;;;;6244072;28;20057;-84
2024/02/27 03:12:27;;;;;;;8.02;1.90;;;3.90;99.90;;;;;;6256909;28;20720;-84
2024/02/27 03:15:28;;;;;;;8.77;2.08;;;3.80;99.90;;;;;;6214179;28;20103;-85
2024/02/27 03:18:30;;;;;;;9.73;2.00;;;3.70;99.90;;;;;;6250185;28;20415;-84
2024/02/27 03:21:32;;;;;;;9.25;1.83;;;3.60;99.90;;;;;;6258195;28;20049;-85
2024/02/27 03:24:34;;;;;;;10.43;2.00;;;3.50;99.90;;;;;;6251472;28;20413;-85
2024/02/27 03:27:36;;;;;;;9.70;1.80;;;3.40;99.90;;;;;;6246271;28;20049;-85
2024/02/27 03:30:38;;;;;;;10.82;2.53;;;3.30;99.90;;;;;;6241974;28;20080;-85
2024/02/27 03:33:40;;;;;;;10.48;2.50;;;3.20;99.90;;;;;;6243272;28;20046;-85
2024/02/27 03:36:42;;;;;;;7.72;2.22;;;3.30;99.90;;;;;;6245810;28;20058;-85
2024/02/27 03:39:43;;;;;;;11.23;2.30;;;3.30;99.90;;;;;;6240723;28;20057;-84
2024/02/27 03:42:45;;;;;;;8.63;2.17;;;3.30;99.90;;;;;;6245769;28;20420;-85
2024/02/27 03:45:47;;;;;;;10.45;2.40;;;3.30;99.90;;;;;;6227688;28;20441;-85
2024/02/27 03:48:48;;;;;;;7.43;2.55;;;3.30;99.90;;;;;;6250659;28;20129;-85
2024/02/27 03:51:50;;;;;;;8.98;2.60;;;3.30;99.90;;;;;;6226003;28;20052;-84
2024/02/27 03:54:52;;;;;;;10.68;2.58;;;3.30;99.90;;;;;;6242616;28;20050;-85
2024/02/27 03:57:53;;;;;;;11.07;2.75;;;3.20;99.90;;;;;;6243037;28;20057;-83
2024/02/27 04:00:55;;;;;;;10.10;2.88;;;3.30;99.90;;;;;;6230912;28;20050;-84
2024/02/27 04:03:57;;;;;;;7.55;2.20;;;3.30;99.90;;;;;;6227124;28;20053;-83
2024/02/27 04:06:58;;;;;;;8.57;2.50;;;3.30;99.90;;;;;;6242292;28;20053;-84
2024/02/27 04:10:00;;;;;;;14.98;2.50;;;3.30;99.90;;;;;;6219199;28;20064;-84
2024/02/27 04:13:02;;;;;;;9.93;2.85;;;3.30;99.90;;;;;;6247842;28;20055;-84
2024/02/27 04:16:04;;;;;;;9.93;2.55;;;3.30;99.90;;;;;;6237985;28;20057;-84
2024/02/27 04:19:05;;;;;;;9.98;3.08;;;3.30;99.90;;;;;;6224266;28;20062;-83
2024/02/27 04:22:07;;;;;;;11.93;2.55;;;3.30;99.90;;;;;;6247364;28;20045;-84
2024/02/27 04:25:09;;;;;;;13.35;3.10;;;3.40;99.90;;;;;;6227763;28;20053;-83
2024/02/27 04:28:11;;;;;;;9.18;3.10;;;3.40;99.90;;;;;;6249248;28;20408;-84
2024/02/27 04:31:12;;;;;;;9.95;2.67;;;3.50;99.90;;;;;;6242053;28;20064;-83
2024/02/27 04:34:15;;;;;;;12.70;2.92;;;3.40;99.90;;;;;;6224250;28;20088;-83
2024/02/27 04:37:16;;;;;;;13.95;3.10;;;3.40;99.90;;;;;;6250130;28;20049;-84
2024/02/27 04:40:18;;;;;;;11.15;2.78;;;3.20;99.90;;;;;;6250832;28;20045;-84
2024/02/27 04:43:20;;;;;;;10.98;2.67;;;3.20;99.90;;;;;;6244604;28;20420;-85
2024/02/27 04:46:22;;;;;;;11.40;2.95;;;3.00;99.90;;;;;;6225641;28;20057;-83
2024/02/27 04:49:23;;;;;;;11.38;2.78;;;2.80;99.90;;;;;;6270823;28;20056;-83
2024/02/27 04:52:25;;;;;;;11.32;3.40;;;2.80;99.90;;;;;;6246415;28;20064;-84
2024/02/27 04:55:29;;;;;;;10.38;2.92;;;2.80;99.90;;;;;;6214688;28;20050;-83
2024/02/27 04:58:30;;;;;;;12.55;2.95;;;2.80;99.90;;;;;;6257432;28;20552;-83
2024/02/27 05:01:32;;;;;;;9.90;3.58;;;2.90;99.90;;;;;;6241521;28;20056;-84
2024/02/27 05:04:34;;;;;;;17.73;3.28;;;2.70;99.90;;;;;;6249286;28;20068;-84
2024/02/27 05:07:35;;;;;;;9.63;3.15;;;2.70;99.90;;;;;;6245712;28;20504;-83
2024/02/27 05:10:37;;;;;;;12.68;4.05;;;2.60;99.90;;;;;;6244440;28;20045;-83
2024/02/27 05:13:39;;;;;;;11.65;3.20;;;2.60;99.90;;;;;;6219686;28;20417;-83
2024/02/27 05:16:40;;;;;;;13.77;3.15;;;2.60;99.90;;;;;;6252175;28;20053;-83
2024/02/27 05:19:42;;;;;;;9.55;2.92;;;2.60;99.90;;;;;;6260504;28;20049;-84
2024/02/27 05:22:43;;;;;;;10.18;2.88;;;2.60;99.90;;;;;;6248722;28;20126;-85
2024/02/27 05:25:45;;;;;;;8.80;2.45;;;2.80;99.90;;;;;;6250174;28;20517;-84
2024/02/27 05:28:47;;;;;;;9.50;3.47;;;2.70;99.90;;;;;;6254078;28;20046;-84
2024/02/27 05:31:48;;;;;;;12.45;3.70;;;3.40;99.90;;;;;;6221734;28;20421;-85
2024/02/27 05:34:50;;;;;;;14.20;4.05;;;2.80;99.90;;;;;;6246256;28;20760;-85
2024/02/27 05:37:52;;;;;;;12.18;4.05;;;2.80;99.90;;;;;;6233602;28;20061;-84
2024/02/27 05:40:53;;;;;;;13.20;4.32;;;3.00;99.90;;;;;;6253645;28;20053;-86
2024/02/27 05:43:55;;;;;;;14.18;4.43;;;3.10;99.90;;;;;;6246901;28;20054;-86
2024/02/27 05:46:56;;;;;;;15.38;4.80;;;3.20;99.90;;;;;;6272225;28;20049;-85
2024/02/27 05:49:58;;;;;;;13.18;5.25;;;3.20;99.90;;;;;;6248159;28;20049;-85
2024/02/27 05:53:00;;;;;;;10.82;4.50;;;3.30;99.90;;;;;;6271612;28;20052;-85
2024/02/27 05:56:02;;;;;;;14.48;4.80;;;3.50;99.90;;;;;;6247103;28;20056;-84
2024/02/27 05:59:03;;;;;;;13.00;4.20;;;3.40;99.90;;;;;;6253612;28;20053;-85
2024/02/27 06:02:05;;;;;;;12.60;4.45;;;3.40;99.90;;;;;;6270380;28;20064;-84
2024/02/27 06:05:07;;;;;;;14.77;5.28;;;3.50;99.90;;;;;;6248363;28;20049;-86
2024/02/27 06:08:08;;;;;;;16.75;5.00;;;3.50;99.90;;;;;;6272756;28;20060;-85
2024/02/27 06:11:10;;;;;;;13.63;4.80;;;3.60;99.90;;;;;;6248139;28;20045;-85
2024/02/27 06:14:13;;;;;;;14.20;5.20;;;4.20;99.90;;;;;;6241883;28;20049;-84
2024/02/27 06:17:14;;;;;;;13.10;4.72;;;3.50;99.90;;;;;;6270686;28;20487;-85
2024/02/27 06:23:36;;;;;;;12.45;5.30;;;3.20;99.90;;;;;;6256640;28;20057;-83
2024/02/27 06:26:38;;;;;;;15.05;4.60;;;3.00;99.90;;;;;;6253857;28;20075;-85
2024/02/27 06:29:40;;;;;;;13.73;4.80;;;2.80;99.90;;;;;;6237374;28;20073;-86
2024/02/27 06:32:41;;;;;;;13.75;5.47;;;2.60;99.90;;;;;;6219261;28;20060;-84
2024/02/27 06:35:43;;;;;;;13.02;4.82;;;2.50;99.90;;;;;;6248714;28;20041;-86
2024/02/27 06:38:45;;;;;;;17.35;4.88;;;2.40;99.90;;;;;;6251333;28;20057;-86
2024/02/27 06:41:47;;;;;;;14.98;5.30;;;2.20;99.90;;;;;;6272505;28;20053;-87
2024/02/27 06:44:48;;;;;;;15.93;4.97;;;2.00;99.90;;;;;;6232646;28;20074;-87
2024/02/27 06:47:50;;;;;;;13.75;4.63;;;1.90;99.90;;;;;;6249610;28;20492;-84
2024/02/27 06:50:54;;;;;;;18.80;5.65;;;1.90;99.90;;;;;;6276397;28;20052;-86
2024/02/27 06:53:56;;;;;;;17.20;6.10;;;1.80;99.90;;;;;;6253417;28;20050;-85
2024/02/27 06:56:58;;;;;;;19.17;6.50;;;1.80;99.90;;;;;;6280909;28;20071;-85
2024/02/27 07:00:00;;;;;;;14.52;5.80;;;1.90;99.90;;;;;;6253766;28;20052;-87
2024/02/27 07:03:02;;;;;;;13.43;5.50;;;1.80;99.90;;;;;;6264122;28;20183;-87
2024/02/27 07:06:04;;;;;;;18.92;5.57;;;1.80;99.90;;;;;;6259142;28;20046;-88
2024/02/27 07:09:08;;;;;;;17.20;6.72;;;1.70;99.90;;;;;;6256462;28;20506;-87
2024/02/27 07:12:10;;;;;;;22.33;7.22;;;1.80;99.90;;;;;;6242096;28;20049;-87
2024/02/27 07:15:11;;;;;;;17.70;7.05;;;2.30;99.90;;;;;;6252053;28;20140;-84
2024/02/27 07:18:15;;;;;;;14.77;6.20;;;2.10;99.90;;;;;;6276600;28;20069;-86
2024/02/27 07:21:18;;;;;;;18.35;6.43;;;2.10;99.90;;;;;;6252420;28;20143;-87
2024/02/27 07:24:21;;;;;;;15.95;6.40;;;2.20;99.90;;;;;;6257075;28;20151;-87
2024/02/27 07:27:23;;;;;;;19.02;6.88;;;2.20;99.90;;;;;;6246673;28;20088;-87
2024/02/27 07:30:26;;;;;;;11.55;6.07;;;2.30;99.90;;;;;;6245141;28;20045;-87
2024/02/27 07:33:28;;;;;;;18.35;7.10;;;2.30;99.90;;;;;;6274470;28;20056;-87
2024/02/27 07:36:29;;;;;;;16.40;6.65;;;2.50;99.90;;;;;;6246647;28;20057;-88
2024/02/27 07:39:31;;;;;;;13.43;6.38;;;2.60;99.90;;;;;;6251363;28;20065;-87
2024/02/27 07:42:33;;;;;;;15.13;7.00;;;2.80;99.90;;;;;;6258696;28;20239;-87
2024/02/27 07:45:35;;;;;;;16.65;6.95;;;2.90;99.90;;;;;;6229416;28;20056;-87
2024/02/27 07:48:37;;;;;;;20.30;7.18;;;3.10;99.90;;;;;;6252552;28;20489;-89
2024/02/27 07:51:39;;;;;;;14.05;6.30;;;3.30;99.90;;;;;;6281225;28;20063;-89
2024/02/27 07:54:40;;;;;;;20.38;6.90;;;3.50;99.90;;;;;;6252441;28;20171;-89
2024/02/27 07:57:42;;;;;;;17.52;7.25;;;3.90;99.90;;;;;;6272022;28;20095;-80
2024/02/27 08:00:44;;;;;;;16.23;7.25;;;4.20;99.90;;;;;;6231178;28;20077;-82
2024/02/27 08:03:46;;;;;;;16.92;7.47;;;4.20;99.90;;;;;;6253577;28;20059;-84
2024/02/27 08:06:47;;;;;;;14.55;7.18;;;4.50;99.90;;;;;;6243527;28;20062;-80
2024/02/27 08:09:49;;;;;;;19.25;7.72;;;4.70;99.90;;;;;;6243624;28;20434;-88
2024/02/27 08:12:52;;;;;;;13.15;6.85;;;4.90;99.90;;;;;;6258077;28;20409;-86
2024/02/27 08:15:54;;;;;;;15.80;7.13;;;5.00;99.90;;;;;;6252275;28;20513;-83
2024/02/27 08:18:55;;;;;;;14.63;7.25;;;5.20;99.90;;;;;;6251823;28;20062;-84
2024/02/27 08:22:03;;;;;;;17.23;7.53;;;5.40;99.90;;;;;;6250719;28;20085;-87
2024/02/27 08:25:09;;;;;;;16.10;7.18;;;5.60;99.90;;;;;;6229509;28;20476;-85
2024/02/27 08:28:10;;;;;;;18.20;6.47;;;5.80;99.90;;;;;;6259930;28;20498;-86
2024/02/27 08:31:12;;;;;;;16.48;6.93;;;6.00;99.90;;;;;;6246178;28;20060;-86
2024/02/27 08:34:14;;;;;;;18.60;6.78;;;6.10;99.90;;;;;;6270197;28;20053;-85
2024/02/27 08:37:16;;;;;;;16.17;6.68;;;6.20;99.90;;;;;;6261385;28;20060;-87
2024/02/27 08:40:17;;;;;;;14.27;6.35;;;6.30;99.90;;;;;;6244980;28;20069;-87
2024/02/27 08:43:19;;;;;;;22.10;7.63;;;6.40;99.90;;;;;;6254853;28;20106;-88
2024/02/27 08:46:20;;;;;;;17.23;6.93;;;6.40;99.90;;;;;;6246512;28;20405;-85
2024/02/27 08:49:22;;;;;;;18.02;6.50;;;6.50;99.90;;;;;;6270380;28;20052;-84
2024/02/27 08:52:24;;;;;;;12.60;5.60;;;6.70;99.90;;;;;;6246888;28;20065;-85
2024/02/27 08:55:25;;;;;;;11.50;5.13;;;6.70;99.20;;;;;;6269271;28;20060;-85
2024/02/27 08:58:27;;;;;;;11.32;4.32;;;6.70;96.90;;;;;;6249026;28;20061;-85
2024/02/27 09:01:29;;;;;;;11.43;4.30;;;6.80;94.90;;;;;;6247154;28;20132;-85
2024/02/27 09:04:32;;;;;;;11.75;4.40;;;6.90;95.20;;;;;;6269813;28;20179;-86
2024/02/27 09:07:34;;;;;;;11.98;4.97;;;7.00;92.70;;;;;;6247083;28;20057;-85
2024/02/27 09:10:35;;;;;;;10.57;5.53;;;7.20;93.80;;;;;;6271039;28;20049;-86
2024/02/27 09:13:37;;;;;;;12.40;5.40;;;7.40;93.00;;;;;;6235619;28;20060;-84
2024/02/27 09:16:39;;;;;;;13.88;5.97;;;7.50;90.20;;;;;;6240036;28;20049;-80
2024/02/27 09:19:40;;;;;;;9.80;4.53;;;7.60;87.20;;;;;;6233803;28;20071;-83
2024/02/27 09:22:42;;;;;;;12.57;4.32;;;7.90;82.00;;;;;;6239930;28;20080;-86
2024/02/27 09:25:44;;;;;;;11.98;5.05;;;8.20;82.40;;;;;;6225554;28;20046;-83
2024/02/27 09:28:46;;;;;;;9.90;5.05;;;8.70;81.70;;;;;;6233111;28;20124;-83
2024/02/27 09:31:48;;;;;;;12.48;5.28;;;9.10;53.70;;;;;;6259497;28;20049;-83
2024/02/27 09:34:50;;;;;;;11.70;5.07;;;9.60;47.40;;;;;;6246636;28;20088;-83
2024/02/27 09:37:52;;;;;;;11.10;5.45;;;9.60;12.70;;;;;;6268838;28;20060;-83
2024/02/27 09:40:59;;;;;;;15.25;5.50;;;9.60;24.70;;;;;;6235396;28;20372;-85
2024/02/27 09:44:00;;;;;;;10.73;5.30;;;10.00;25.80;;;;;;6253521;28;20059;-85
2024/02/27 09:47:03;;;;;;;13.15;5.28;;;10.20;10.20;;;;;;6226103;28;20061;-85
2024/02/27 09:50:04;;;;;;;12.63;4.85;;;10.90;7.30;;;;;;6271018;28;20523;-89
2024/02/27 09:53:11;;;;;;;13.35;5.20;;;9.90;1.00;;;;;;6223104;28;20384;-89
2024/02/27 09:56:15;;;;;;;13.48;5.30;;;9.80;12.60;;;;;;6240377;28;20477;-82
2024/02/27 09:59:16;;;;;;;10.50;5.30;;;9.60;7.40;;;;;;6216114;28;20132;-81
2024/02/27 10:02:18;;;;;;;15.13;5.70;;;9.30;6.70;;;;;;6245365;28;20049;-85
2024/02/27 10:05:20;;;;;;;14.93;5.68;;;9.30;10.60;;;;;;6248133;28;20049;-85
2024/02/27 10:08:24;;;;;;;13.32;5.18;;;9.40;19.50;;;;;;6245101;28;20210;-84
2024/02/27 10:11:25;;;;;;;14.75;4.88;;;9.80;1.20;;;;;;6250058;28;20048;-84
2024/02/27 10:14:27;;;;;;;9.88;4.40;;;10.30;1.00;;;;;;6226513;28;20445;-85
2024/02/27 10:17:31;;;;;;;9.52;4.60;;;10.50;1.00;;;;;;6230635;28;20080;-85
2024/02/27 10:20:32;;;;;;;14.25;5.40;;;10.80;1.00;;;;;;6251899;28;20130;-85
2024/02/27 10:23:34;;;;;;;9.45;4.60;;;11.00;1.00;;;;;;6226314;28;20053;-83
2024/02/27 10:26:38;;;;;;;10.40;4.40;;;11.10;1.00;;;;;;6267499;28;20643;-82
2024/02/27 10:29:39;;;;;;;8.60;4.10;;;11.00;1.00;;;;;;6229098;28;20052;-83
2024/02/27 10:32:43;;;;;;;12.73;4.93;;;11.30;1.00;;;;;;6267572;28;20049;-84
2024/02/27 10:35:45;;;;;;;12.02;3.33;;;11.80;1.00;;;;;;6247560;28;20139;-83
2024/02/27 10:38:47;;;;;;;6.57;3.63;;;12.30;1.00;;;;;;6258203;28;20061;-85
2024/02/27 10:41:49;;;;;;;7.22;3.22;;;12.50;1.00;;;;;;6268365;28;20335;-83
2024/02/27 10:44:51;;;;;;;6.30;3.40;;;12.60;1.00;;;;;;6243964;28;20481;-85
2024/02/27 10:47:52;;;;;;;9.82;3.63;;;12.80;1.00;;;;;;6219587;28;20064;-85
2024/02/27 10:50:54;;;;;;;9.23;3.10;;;13.00;1.00;;;;;;6249226;28;20179;-83
2024/02/27 10:53:56;;;;;;;8.18;3.03;;;13.30;1.00;;;;;;6215165;28;20064;-88
2024/02/27 10:56:57;;;;;;;10.13;3.50;;;13.20;1.00;;;;;;6216484;28;20066;-84
2024/02/27 10:59:59;;;;;;;6.53;3.30;;;13.20;1.00;;;;;;6183152;28;20050;-81
2024/02/27 11:03:01;;;;;;;7.72;3.67;;;12.80;1.00;;;;;;6266473;28;20061;-84
2024/02/27 11:06:03;;;;;;;7.05;3.33;;;12.30;1.00;;;;;;6242430;28;20045;-85
2024/02/27 11:09:10;;;;;;;10.23;3.20;;;12.00;1.00;;;;;;6234271;28;20049;-82
2024/02/27 11:12:11;;;;;;;7.50;2.28;;;11.90;1.00;;;;;;6235278;28;20180;-80
2024/02/27 11:15:13;;;;;;;6.72;2.20;;;11.70;1.00;;;;;;6246352;28;20045;-82
2024/02/27 11:18:15;;;;;;;7.35;2.13;;;11.60;1.00;;;;;;6217854;28;20567;-86
2024/02/27 11:21:17;;;;;;;8.18;2.40;;;11.90;1.00;;;;;;6266472;28;20049;-83
2024/02/27 11:24:19;;;;;;;5.93;1.98;;;11.20;1.00;;;;;;6237917;28;20095;-88
2024/02/27 11:27:21;;;;;;;5.93;2.58;;;11.00;1.00;;;;;;6224402;28;20175;-87
2024/02/27 11:30:24;;;;;;;9.60;2.67;;;11.00;1.00;;;;;;6230790;28;20060;-88
2024/02/27 11:33:26;;;;;;;6.07;2.13;;;11.10;1.00;;;;;;6251839;28;20053;-82
2024/02/27 11:36:28;;;;;;;9.70;3.00;;;10.90;1.00;;;;;;6236896;28;20206;-83
2024/02/27 11:39:30;;;;;;;6.57;2.75;;;10.90;1.00;;;;;;6270938;28;20065;-86
2024/02/27 11:42:32;;;;;;;7.78;3.20;;;11.00;1.00;;;;;;6255219;28;20128;-86
2024/02/27 11:45:33;;;;;;;8.98;3.00;;;11.50;1.00;;;;;;6237327;28;20103;-86
2024/02/27 11:48:35;;;;;;;8.90;3.13;;;11.70;1.00;;;;;;6205025;28;20061;-85
2024/02/27 11:51:37;;;;;;;6.15;2.95;;;11.30;1.00;;;;;;6252383;28;20050;-85
2024/02/27 11:54:40;;;;;;;6.03;2.55;;;11.10;1.00;;;;;;6229819;28;20084;-86
2024/02/27 11:57:41;;;;;;;7.75;3.10;;;11.40;1.00;;;;;;6230320;28;20053;-87
2024/02/27 12:00:43;;;;;;;6.60;2.30;;;11.70;1.00;;;;;;6248680;28;20053;-85
2024/02/27 12:03:45;;;;;;;7.22;2.22;;;12.00;1.00;;;;;;6246677;28;20054;-85
2024/02/27 12:06:47;;;;;;;7.35;2.40;;;11.80;1.00;;;;;;6235571;28;20046;-82
2024/02/27 12:09:52;;;;;;;5.15;2.30;;;12.10;1.00;;;;;;6242991;28;20145;-86
2024/02/27 12:12:55;;;;;;;5.32;2.13;;;12.00;1.00;;;;;;6241587;28;20218;-84
2024/02/27 12:15:57;;;;;;;6.43;2.33;;;12.00;1.00;;;;;;6214424;28;20409;-85
2024/02/27 12:19:00;;;;;;;6.55;2.42;;;12.00;1.00;;;;;;6216778;28;20060;-82
2024/02/27 12:22:03;;;;;;;5.90;2.40;;;12.40;1.00;;;;;;6242152;28;20574;-82
2024/02/27 12:25:05;;;;;;;7.60;2.50;;;12.70;1.00;;;;;;6246539;28;20053;-83
2024/02/27 12:28:08;;;;;;;5.68;2.28;;;13.10;1.00;;;;;;6256001;28;20469;-82
2024/02/27 12:31:09;;;;;;;5.97;2.30;;;13.30;1.00;;;;;;6234396;28;20530;-82
2024/02/27 12:34:12;;;;;;;6.38;1.80;;;13.00;1.00;;;;;;6245617;28;20049;-83
2024/02/27 12:37:14;;;;;;;5.00;2.05;;;12.70;1.00;;;;;;6255551;28;20152;-82
2024/02/27 12:40:16;;;;;;;6.18;2.20;;;12.70;1.00;;;;;;6269264;28;20488;-82
2024/02/27 12:43:18;;;;;;;6.10;2.22;;;12.70;1.00;;;;;;6247601;28;20122;-81
2024/02/27 12:46:19;;;;;;;7.03;2.00;;;12.60;1.00;;;;;;6251649;28;20049;-82
2024/02/27 12:49:22;;;;;;;12.93;2.33;;;12.60;1.00;;;;;;6245694;28;20049;-82
2024/02/27 12:52:24;;;;;;;6.85;2.55;;;12.70;1.00;;;;;;6269379;28;20134;-82
2024/02/27 12:55:26;;;;;;;6.72;2.63;;;12.20;1.00;;;;;;6246125;28;20058;-81
2024/02/27 12:58:28;;;;;;;5.53;2.20;;;12.00;1.00;;;;;;6255732;28;20053;-81
2024/02/27 13:01:29;;;;;;;6.47;2.30;;;12.00;1.00;;;;;;6270042;28;20525;-81
2024/02/27 13:04:31;;;;;;;5.88;2.00;;;12.10;1.00;;;;;;6245886;28;20449;-83
2024/02/27 13:07:33;;;;;;;5.03;2.22;;;11.80;1.00;;;;;;6269140;28;20049;-82
2024/02/27 13:10:36;;;;;;;6.60;2.55;;;12.00;1.00;;;;;;6245116;28;20424;-83
2024/02/27 13:13:38;;;;;;;5.97;2.47;;;12.10;1.00;;;;;;6253377;28;20420;-82
2024/02/27 13:16:39;;;;;;;6.80;2.60;;;11.70;1.00;;;;;;6250784;28;20049;-82
2024/02/27 13:19:41;;;;;;;7.22;2.60;;;11.50;1.00;;;;;;6244849;28;20053;-82
2024/02/27 13:22:43;;;;;;;6.32;2.38;;;11.20;1.00;;;;;;6250676;28;20420;-83
2024/02/27 13:25:50;;;;;;;5.40;2.40;;;10.90;1.00;;;;;;6219967;28;20080;-82
2024/02/27 13:28:52;;;;;;;7.50;2.67;;;10.70;1.00;;;;;;6250608;28;20540;-83
2024/02/27 13:31:53;;;;;;;8.63;2.70;;;10.60;1.00;;;;;;6266338;28;20071;-83
2024/02/27 13:34:55;;;;;;;8.48;2.95;;;10.60;1.00;;;;;;6244864;28;20057;-83
2024/02/27 13:37:57;;;;;;;9.65;2.67;;;10.60;1.00;;;;;;6268621;28;20067;-83
2024/02/27 13:40:59;;;;;;;11.18;3.08;;;10.50;1.00;;;;;;6244178;28;20057;-83
2024/02/27 13:44:00;;;;;;;9.50;3.13;;;10.20;1.00;;;;;;6244836;28;20115;-83
2024/02/27 13:47:02;;;;;;;6.22;2.72;;;10.10;1.00;;;;;;6267527;28;20064;-83
2024/02/27 13:50:04;;;;;;;6.85;2.60;;;10.00;1.00;;;;;;6228171;28;20112;-83
2024/02/27 13:53:10;;;;;;;6.63;2.35;;;10.20;1.00;;;;;;6250126;28;20052;-83
2024/02/27 13:56:11;;;;;;;7.25;2.78;;;10.40;1.00;;;;;;6221869;28;20060;-83
2024/02/27 13:59:13;;;;;;;6.65;2.42;;;10.90;1.00;;;;;;6231978;28;20053;-82
2024/02/27 14:02:15;;;;;;;4.95;2.22;;;10.50;1.00;;;;;;6220980;28;20073;-80
2024/02/27 14:05:16;;;;;;;8.10;2.75;;;10.50;1.00;;;;;;6236081;28;20054;-81
2024/02/27 14:08:18;;;;;;;6.10;2.85;;;10.40;1.00;;;;;;6239938;28;20057;-83
2024/02/27 14:11:20;;;;;;;5.20;2.15;;;10.20;1.00;;;;;;6220259;28;20072;-82
2024/02/27 14:14:21;;;;;;;6.68;1.98;;;10.30;1.00;;;;;;6241726;28;20053;-81
2024/02/27 14:17:23;;;;;;;7.63;2.25;;;10.30;1.00;;;;;;6230730;28;20057;-84
2024/02/27 14:20:25;;;;;;;5.95;1.70;;;10.40;1.00;;;;;;6217997;28;20413;-82
2024/02/27 14:23:26;;;;;;;4.25;1.45;;;10.40;1.00;;;;;;6225100;28;20045;-83
2024/02/27 14:26:28;;;;;;;3.80;1.52;;;10.10;1.00;;;;;;6225042;28;20049;-82
2024/02/27 14:29:30;;;;;;;5.60;1.77;;;9.90;1.00;;;;;;6206364;28;20061;-85
2024/02/27 14:32:32;;;;;;;5.07;1.70;;;9.80;1.00;;;;;;6243694;28;20042;-82
2024/02/27 14:35:35;;;;;;;6.43;1.73;;;9.80;1.00;;;;;;6222711;28;20493;-81
2024/02/27 14:38:37;;;;;;;6.03;1.73;;;9.80;1.00;;;;;;6223574;28;20097;-82
2024/02/27 14:41:38;;;;;;;5.30;1.50;;;9.90;1.00;;;;;;6240206;28;20050;-82
2024/02/27 14:44:40;;;;;;;6.15;1.90;;;9.90;1.00;;;;;;6225263;28;20049;-82
2024/02/27 14:47:41;;;;;;;5.28;2.13;;;10.50;1.00;;;;;;6239641;28;20054;-80
2024/02/27 14:50:43;;;;;;;4.72;1.83;;;9.90;1.00;;;;;;6267104;28;20530;-82
2024/02/27 14:53:45;;;;;;;9.43;2.15;;;9.90;1.00;;;;;;6224230;28;20436;-80
2024/02/27 14:56:48;;;;;;;5.10;1.88;;;10.00;1.00;;;;;;6233988;28;20061;-81
2024/02/27 14:59:49;;;;;;;5.97;2.30;;;10.80;1.00;;;;;;6222692;28;20061;-81
2024/02/27 15:02:51;;;;;;;5.50;2.13;;;11.10;1.00;;;;;;6254994;28;20045;-82
2024/02/27 15:05:52;;;;;;;5.28;2.20;;;11.70;1.00;;;;;;6259639;28;20493;-84
2024/02/27 15:08:54;;;;;;;8.57;2.25;;;11.70;1.00;;;;;;6243005;28;20076;-80
2024/02/27 15:11:56;;;;;;;4.97;1.88;;;11.60;1.00;;;;;;6246468;28;20230;-83
2024/02/27 15:14:58;;;;;;;6.60;2.10;;;11.50;1.00;;;;;;6259756;28;20049;-79
2024/02/27 15:17:59;;;;;;;7.88;1.90;;;11.30;1.00;;;;;;6252115;28;20061;-82
2024/02/27 15:21:02;;;;;;;5.07;2.10;;;11.10;1.00;;;;;;6247021;28;20516;-82
2024/02/27 15:24:04;;;;;;;8.73;1.70;;;11.10;1.00;;;;;;6243256;28;20064;-83
2024/02/27 15:27:06;;;;;;;6.63;2.17;;;11.10;1.00;;;;;;6240452;28;20057;-84
2024/02/27 15:30:10;;;;;;;7.85;2.20;;;11.00;1.00;;;;;;6241809;28;20060;-81
2024/02/27 15:33:12;;;;;;;5.60;2.00;;;10.80;1.00;;;;;;6249331;28;20203;-82
2024/02/27 15:36:14;;;;;;;6.80;2.25;;;10.60;1.00;;;;;;6253091;28;20224;-81
2024/02/27 15:39:15;;;;;;;7.40;2.17;;;10.50;1.00;;;;;;6266280;28;20130;-81
2024/02/27 15:42:17;;;;;;;6.85;2.05;;;10.20;1.00;;;;;;6239037;28;20498;-85
2024/02/27 15:45:19;;;;;;;4.82;2.10;;;9.90;1.00;;;;;;6223609;28;20171;-82
2024/02/27 15:48:21;;;;;;;5.30;1.90;;;10.20;1.00;;;;;;6243052;28;20172;-83
2024/02/27 15:51:23;;;;;;;3.83;1.67;;;9.90;1.00;;;;;;6253092;28;20053;-81
2024/02/27 15:54:25;;;;;;;6.38;2.13;;;10.50;1.00;;;;;;6247148;28;20053;-80
2024/02/27 15:57:27;;;;;;;7.18;1.92;;;10.00;1.00;;;;;;6266378;28;20127;-83